Time;durP1;ratioP1;P1;durP2;ratioP2;P2;SDS_P1;SDS_P2;PMS_P1;PMS_P2;Temp;Humidity;BMP_temperature;BMP_pressure;BME280_temperature;BME280_humidity;BME280_pressure;Samples;Min_cycle;Max_cycle;Signal;HPM_P1;HPM_P2
2023/11/21 00:01:53;;;;;;;13.53;8.80;;;9.90;97.40;;;;;;778488;183;26443;-85
2023/11/21 00:04:21;;;;;;;12.33;8.90;;;9.90;97.10;;;;;;778959;183;26435;-85
2023/11/21 00:06:48;;;;;;;21.23;11.37;;;9.80;96.90;;;;;;780469;182;26455;-85
2023/11/21 00:09:17;;;;;;;15.47;9.57;;;9.90;97.20;;;;;;782619;182;26502;-87
2023/11/21 00:11:50;;;;;;;14.43;9.13;;;9.90;97.40;;;;;;787417;182;26453;-83
2023/11/21 00:14:18;;;;;;;20.17;13.00;;;9.90;96.90;;;;;;780257;181;26466;-86
2023/11/21 00:16:45;;;;;;;18.20;12.37;;;9.90;97.20;;;;;;781439;180;26440;-85
2023/11/21 00:19:13;;;;;;;16.60;11.83;;;9.90;97.30;;;;;;776664;180;27024;-87
2023/11/21 00:21:46;;;;;;;17.73;13.50;;;9.80;97.00;;;;;;780224;182;26451;-87
2023/11/21 00:24:13;;;;;;;20.13;13.30;;;9.80;97.10;;;;;;782879;181;26512;-87
2023/11/21 00:26:44;;;;;;;23.93;14.40;;;9.80;97.40;;;;;;785601;181;26426;-86
2023/11/21 00:29:21;;;;;;;24.47;16.10;;;9.80;97.30;;;;;;783099;181;26453;-86
2023/11/21 00:31:53;;;;;;;24.87;16.30;;;9.80;97.40;;;;;;780450;182;26474;-86
2023/11/21 00:34:24;;;;;;;22.23;15.53;;;9.80;97.40;;;;;;783393;183;26519;-87
2023/11/21 00:36:51;;;;;;;25.17;16.20;;;9.80;97.60;;;;;;779230;181;26428;-87
2023/11/21 00:39:19;;;;;;;26.63;17.23;;;9.80;97.60;;;;;;778410;182;27009;-87
2023/11/21 00:41:46;;;;;;;28.30;16.93;;;9.80;97.70;;;;;;779810;182;26492;-87
2023/11/21 00:44:16;;;;;;;20.83;13.90;;;9.80;97.60;;;;;;779820;183;26997;-86
2023/11/21 00:46:42;;;;;;;25.87;16.73;;;9.70;97.30;;;;;;778278;180;26437;-86
2023/11/21 00:49:13;;;;;;;21.77;15.63;;;9.80;97.60;;;;;;775721;185;26500;-87
2023/11/21 00:51:43;;;;;;;21.87;16.50;;;9.80;97.50;;;;;;782952;181;26458;-87
2023/11/21 00:54:13;;;;;;;21.07;15.20;;;9.90;97.60;;;;;;787682;181;26456;-86
2023/11/21 00:56:47;;;;;;;22.67;14.23;;;9.90;97.40;;;;;;784446;178;26447;-86
2023/11/21 00:59:14;;;;;;;20.97;14.73;;;9.80;97.20;;;;;;776397;184;26434;-86
2023/11/21 01:04:16;;;;;;;25.87;16.37;;;9.70;97.00;;;;;;788774;182;26453;-84
2023/11/21 01:06:46;;;;;;;27.43;17.10;;;9.50;96.80;;;;;;785650;182;26445;-87
2023/11/21 01:09:13;;;;;;;34.57;23.17;;;9.40;96.70;;;;;;779868;178;26486;-87
2023/11/21 01:11:43;;;;;;;31.57;19.37;;;9.30;97.10;;;;;;774701;182;27007;-86
2023/11/21 01:14:23;;;;;;;42.53;24.00;;;9.30;97.90;;;;;;778238;183;26485;-86
2023/11/21 01:17:12;;;;;;;;;;;;;;;;;;;;;
2023/11/21 01:19:44;;;;;;;28.20;16.97;;;9.40;98.20;;;;;;777547;182;26433;-87
2023/11/21 01:22:25;;;;;;;37.77;22.03;;;9.40;98.20;;;;;;783292;182;26545;-86
2023/11/21 01:24:52;;;;;;;29.33;18.00;;;9.40;98.50;;;;;;788609;182;26999;-86
2023/11/21 01:27:30;;;;;;;23.40;17.23;;;9.50;98.50;;;;;;782260;182;26443;-85
2023/11/21 01:30:02;;;;;;;25.27;15.30;;;9.50;98.30;;;;;;775958;184;26434;-85
2023/11/21 01:32:29;;;;;;;26.57;16.90;;;9.50;97.90;;;;;;787865;173;26511;-89
2023/11/21 01:34:55;;;;;;;27.83;15.83;;;9.50;98.00;;;;;;825252;174;26408;-89
2023/11/21 01:37:22;;;;;;;25.83;17.20;;;9.60;98.30;;;;;;822770;173;26406;-88
2023/11/21 01:39:48;;;;;;;23.07;15.07;;;9.60;98.30;;;;;;820872;174;26437;-89
2023/11/21 01:42:15;;;;;;;25.10;15.43;;;9.50;98.00;;;;;;819155;173;26451;-89
2023/11/21 01:44:41;;;;;;;23.77;15.07;;;9.50;98.10;;;;;;812915;174;26442;-89
2023/11/21 01:47:08;;;;;;;28.43;16.17;;;9.50;97.90;;;;;;813336;174;26431;-89
2023/11/21 01:49:35;;;;;;;28.60;16.87;;;9.50;97.70;;;;;;811357;174;26431;-90
2023/11/21 01:52:01;;;;;;;26.77;16.23;;;9.50;97.60;;;;;;810426;176;26402;-89
2023/11/21 01:54:31;;;;;;;25.57;16.40;;;9.50;97.50;;;;;;807102;174;26457;-89
2023/11/21 01:56:55;;;;;;;25.43;15.83;;;9.50;97.70;;;;;;809080;174;26429;-88
2023/11/21 01:59:22;;;;;;;25.87;15.87;;;9.40;97.50;;;;;;816589;174;26413;-88
2023/11/21 02:01:50;;;;;;;33.50;20.23;;;9.30;97.30;;;;;;814368;173;26961;-89
2023/11/21 02:04:15;;;;;;;29.60;18.37;;;9.30;98.00;;;;;;808914;174;26451;-90
2023/11/21 02:06:42;;;;;;;25.63;18.17;;;9.20;97.70;;;;;;804446;173;26423;-90
2023/11/21 02:09:08;;;;;;;28.53;18.50;;;9.20;97.70;;;;;;808549;176;26975;-89
2023/11/21 02:11:35;;;;;;;33.27;22.47;;;9.10;98.10;;;;;;814032;173;26424;-89
2023/11/21 02:14:01;;;;;;;47.03;28.13;;;9.10;97.90;;;;;;809671;177;27016;-88
2023/11/21 02:16:31;;;;;;;31.70;21.03;;;9.10;98.10;;;;;;803593;175;26439;-89
2023/11/21 02:18:55;;;;;;;36.13;22.07;;;9.00;97.80;;;;;;807632;174;26411;-89
2023/11/21 02:21:21;;;;;;;32.13;21.10;;;8.90;98.00;;;;;;810470;173;26996;-89
2023/11/21 02:23:48;;;;;;;36.33;24.37;;;8.90;98.00;;;;;;818495;174;26442;-89
2023/11/21 02:26:16;;;;;;;44.53;26.13;;;8.90;98.20;;;;;;813514;177;26953;-88
2023/11/21 02:28:42;;;;;;;55.73;30.80;;;8.80;98.10;;;;;;809850;173;26410;-91
2023/11/21 02:31:08;;;;;;;42.60;26.00;;;8.90;98.40;;;;;;818176;174;26415;-90
2023/11/21 02:33:34;;;;;;;46.40;27.20;;;8.90;98.40;;;;;;809670;177;26430;-88
2023/11/21 02:36:01;;;;;;;42.07;24.30;;;9.00;98.50;;;;;;806460;174;26444;-89
2023/11/21 02:38:27;;;;;;;43.43;24.37;;;9.10;98.40;;;;;;808952;176;26435;-88
2023/11/21 02:40:54;;;;;;;48.10;27.10;;;9.20;98.50;;;;;;807435;174;26404;-89
2023/11/21 02:43:21;;;;;;;43.37;26.70;;;9.20;98.40;;;;;;817309;172;27001;-89
2023/11/21 02:45:47;;;;;;;42.47;26.20;;;9.30;98.50;;;;;;815618;176;26410;-89
2023/11/21 02:48:14;;;;;;;42.07;23.57;;;9.30;98.30;;;;;;813461;174;26977;-88
2023/11/21 02:50:40;;;;;;;38.03;24.70;;;9.40;98.40;;;;;;806091;176;26410;-90
2023/11/21 02:53:07;;;;;;;35.37;22.97;;;9.30;98.20;;;;;;818463;173;26992;-91
2023/11/21 02:55:34;;;;;;;35.87;22.30;;;9.40;98.20;;;;;;807582;173;26441;-89
2023/11/21 02:58:01;;;;;;;39.37;23.47;;;9.30;98.00;;;;;;807373;174;26406;-90
2023/11/21 03:00:28;;;;;;;36.50;23.57;;;9.40;98.10;;;;;;818639;174;26420;-90
2023/11/21 03:02:55;;;;;;;38.63;23.87;;;9.40;98.10;;;;;;808658;174;26430;-88
2023/11/21 03:05:21;;;;;;;34.43;20.43;;;9.40;98.00;;;;;;819949;174;26962;-88
2023/11/21 03:07:47;;;;;;;38.07;21.70;;;9.40;97.90;;;;;;816683;174;26953;-89
2023/11/21 03:10:14;;;;;;;33.03;21.33;;;9.40;98.10;;;;;;811984;175;26405;-91
2023/11/21 03:12:40;;;;;;;28.83;18.57;;;9.50;97.90;;;;;;811917;173;27003;-89
2023/11/21 03:15:08;;;;;;;32.73;19.57;;;9.40;97.70;;;;;;811297;174;27498;-88
2023/11/21 03:17:34;;;;;;;36.50;20.03;;;9.40;97.70;;;;;;806041;175;26415;-89
2023/11/21 03:20:01;;;;;;;36.07;19.57;;;9.30;97.70;;;;;;811061;174;26499;-88
2023/11/21 03:22:27;;;;;;;30.33;18.70;;;9.50;98.40;;;;;;806700;173;26429;-89
2023/11/21 03:24:54;;;;;;;29.40;18.47;;;9.50;98.10;;;;;;808754;176;26417;-89
2023/11/21 03:27:21;;;;;;;28.77;18.53;;;9.60;98.00;;;;;;806632;174;26434;-90
2023/11/21 03:29:47;;;;;;;28.63;17.60;;;9.50;97.90;;;;;;808595;174;26447;-88
2023/11/21 03:32:14;;;;;;;30.20;18.07;;;9.50;97.70;;;;;;810869;174;26446;-89
2023/11/21 03:34:52;;;;;;;30.80;19.77;;;9.50;97.90;;;;;;809573;173;26427;-89
2023/11/21 03:37:20;;;;;;;36.20;21.03;;;9.50;97.90;;;;;;810161;173;26433;-89
2023/11/21 03:39:45;;;;;;;32.33;19.90;;;9.50;97.70;;;;;;813316;174;26408;-89
2023/11/21 03:42:12;;;;;;;33.17;21.53;;;9.50;97.90;;;;;;814090;174;26403;-89
2023/11/21 03:44:38;;;;;;;35.30;20.10;;;9.30;97.40;;;;;;822142;174;26967;-89
2023/11/21 03:47:05;;;;;;;31.83;19.90;;;9.30;97.50;;;;;;820804;173;26433;-88
2023/11/21 03:49:31;;;;;;;28.60;19.53;;;9.20;97.50;;;;;;815677;173;26936;-88
2023/11/21 03:51:58;;;;;;;40.30;23.67;;;9.20;97.60;;;;;;812562;174;26413;-89
2023/11/21 03:54:25;;;;;;;42.87;23.23;;;9.20;97.70;;;;;;812392;174;26437;-89
2023/11/21 03:56:52;;;;;;;35.40;22.17;;;9.20;97.80;;;;;;805951;177;26449;-88
2023/11/21 03:59:18;;;;;;;41.90;24.60;;;9.10;97.70;;;;;;815066;174;26406;-89
2023/11/21 04:01:44;;;;;;;45.33;25.33;;;9.10;97.70;;;;;;819286;173;26409;-88
2023/11/21 04:04:12;;;;;;;41.73;24.77;;;9.20;98.00;;;;;;818750;173;27059;-90
2023/11/21 04:06:38;;;;;;;38.97;24.57;;;9.20;97.90;;;;;;803120;177;26425;-88
2023/11/21 04:09:05;;;;;;;38.87;22.67;;;9.20;97.90;;;;;;807135;173;26427;-89
2023/11/21 04:11:32;;;;;;;42.23;24.20;;;9.10;97.50;;;;;;805206;176;26443;-89
2023/11/21 04:13:58;;;;;;;40.10;23.93;;;9.20;97.90;;;;;;804603;175;26996;-89
2023/11/21 04:16:25;;;;;;;40.60;24.23;;;9.20;97.90;;;;;;805369;177;26426;-89
2023/11/21 04:18:51;;;;;;;44.20;25.40;;;9.20;98.00;;;;;;806951;173;26413;-89
2023/11/21 04:21:18;;;;;;;37.80;22.63;;;9.20;97.80;;;;;;805802;174;26470;-91
2023/11/21 04:23:45;;;;;;;38.30;22.90;;;9.20;97.70;;;;;;804050;174;26434;-89
2023/11/21 04:26:12;;;;;;;44.23;25.23;;;9.10;97.50;;;;;;805163;178;26450;-89
2023/11/21 04:28:38;;;;;;;49.03;28.63;;;9.20;98.00;;;;;;804960;176;26609;-89
2023/11/21 04:31:05;;;;;;;39.33;24.67;;;9.30;98.20;;;;;;809062;174;26487;-89
2023/11/21 04:33:31;;;;;;;40.03;22.77;;;9.20;98.10;;;;;;804385;174;26490;-89
2023/11/21 04:35:58;;;;;;;40.87;23.10;;;9.20;98.00;;;;;;803774;178;26429;-89
2023/11/21 04:38:24;;;;;;;43.90;24.87;;;9.30;98.20;;;;;;805398;174;26401;-90
2023/11/21 04:40:51;;;;;;;42.53;25.50;;;9.30;98.00;;;;;;816593;174;26411;-89
2023/11/21 04:43:18;;;;;;;37.93;24.10;;;9.20;97.90;;;;;;814511;173;26445;-90
2023/11/21 04:45:44;;;;;;;41.87;24.17;;;9.20;97.80;;;;;;815615;175;26441;-90
2023/11/21 04:48:11;;;;;;;41.57;24.50;;;9.10;97.70;;;;;;815800;175;26413;-90
2023/11/21 04:50:38;;;;;;;43.73;24.00;;;9.00;97.70;;;;;;813011;173;26405;-88
2023/11/21 04:53:05;;;;;;;47.13;27.87;;;9.00;97.70;;;;;;806756;174;26449;-89
2023/11/21 04:55:30;;;;;;;49.30;27.13;;;9.00;97.80;;;;;;803352;177;26422;-90
2023/11/21 04:57:57;;;;;;;40.00;24.40;;;9.00;97.80;;;;;;805503;175;26485;-89
2023/11/21 05:00:24;;;;;;;41.50;24.23;;;8.90;97.60;;;;;;810825;173;26403;-89
2023/11/21 05:02:50;;;;;;;45.27;25.40;;;8.90;97.60;;;;;;810173;174;26990;-89
2023/11/21 05:05:17;;;;;;;49.60;26.83;;;8.90;97.70;;;;;;809786;177;26415;-91
2023/11/21 05:07:43;;;;;;;47.53;27.10;;;8.90;97.90;;;;;;810038;176;26409;-92
2023/11/21 05:10:11;;;;;;;42.37;24.10;;;8.90;97.90;;;;;;819379;174;26466;-90
2023/11/21 05:12:37;;;;;;;57.80;27.83;;;8.80;97.90;;;;;;813968;173;26773;-91
2023/11/21 05:15:09;;;;;;;47.40;26.10;;;8.80;97.90;;;;;;815568;176;26426;-90
2023/11/21 05:17:35;;;;;;;47.37;26.13;;;8.80;98.00;;;;;;814395;175;26435;-89
2023/11/21 05:20:03;;;;;;;47.73;26.37;;;8.90;98.20;;;;;;815572;174;26465;-90
2023/11/21 05:22:29;;;;;;;58.10;29.53;;;8.90;98.10;;;;;;821841;174;26427;-90
2023/11/21 05:24:55;;;;;;;58.70;28.90;;;8.90;98.20;;;;;;825693;173;27015;-89
2023/11/21 05:27:22;;;;;;;44.87;24.00;;;9.00;98.20;;;;;;825684;174;26491;-90
2023/11/21 05:29:48;;;;;;;64.00;28.93;;;9.00;98.40;;;;;;815398;173;27057;-90
2023/11/21 05:32:17;;;;;;;50.57;27.90;;;9.00;98.40;;;;;;823991;174;26457;-89
2023/11/21 05:34:42;;;;;;;67.73;31.33;;;9.10;98.50;;;;;;825062;173;26985;-90
2023/11/21 05:37:08;;;;;;;56.13;28.43;;;9.20;98.60;;;;;;822672;174;26409;-89
2023/11/21 05:39:35;;;;;;;47.27;26.63;;;9.10;98.40;;;;;;818579;174;26946;-91
2023/11/21 05:42:01;;;;;;;39.93;22.50;;;9.10;98.40;;;;;;805477;174;26410;-89
2023/11/21 05:44:28;;;;;;;41.17;22.90;;;9.10;98.40;;;;;;819638;174;26416;-89
2023/11/21 05:46:55;;;;;;;47.13;23.73;;;9.00;98.20;;;;;;822435;175;26411;-89
2023/11/21 05:49:21;;;;;;;38.57;22.13;;;9.00;98.20;;;;;;819168;174;26397;-89
2023/11/21 05:51:48;;;;;;;38.27;21.53;;;9.00;98.10;;;;;;812044;174;26410;-89
2023/11/21 05:54:14;;;;;;;40.27;23.23;;;8.90;97.90;;;;;;813963;173;26426;-89
2023/11/21 05:56:41;;;;;;;40.30;22.53;;;8.90;97.90;;;;;;814811;174;26444;-90
2023/11/21 05:59:07;;;;;;;42.23;23.47;;;8.90;97.90;;;;;;822070;174;26411;-89
2023/11/21 06:01:34;;;;;;;39.13;21.97;;;8.90;98.00;;;;;;811571;174;26414;-91
2023/11/21 06:04:01;;;;;;;39.40;20.87;;;8.90;97.90;;;;;;808701;173;26422;-90
2023/11/21 06:06:28;;;;;;;40.70;21.73;;;8.90;97.90;;;;;;806012;177;26426;-89
2023/11/21 06:08:54;;;;;;;44.40;24.10;;;8.90;97.90;;;;;;805969;174;26420;-90
2023/11/21 06:11:20;;;;;;;52.73;27.50;;;8.90;98.00;;;;;;807798;177;26953;-89
2023/11/21 06:13:47;;;;;;;49.33;25.23;;;9.00;98.00;;;;;;809596;174;26422;-90
2023/11/21 06:16:16;;;;;;;44.83;25.20;;;9.10;98.30;;;;;;811830;174;26455;-89
2023/11/21 06:18:40;;;;;;;36.20;21.43;;;9.10;98.40;;;;;;811767;174;26414;-89
2023/11/21 06:21:07;;;;;;;42.63;21.90;;;9.20;98.30;;;;;;810576;176;26417;-89
2023/11/21 06:23:33;;;;;;;39.03;21.13;;;9.10;98.20;;;;;;810925;174;26427;-89
2023/11/21 06:26:00;;;;;;;41.90;23.20;;;9.10;98.10;;;;;;825459;173;26424;-89
2023/11/21 06:28:27;;;;;;;33.47;20.43;;;9.10;98.10;;;;;;823930;174;26421;-89
2023/11/21 06:30:53;;;;;;;35.80;20.50;;;9.20;98.60;;;;;;816556;174;26403;-90
2023/11/21 06:33:21;;;;;;;45.20;22.40;;;9.20;98.10;;;;;;815626;173;26418;-90
2023/11/21 06:35:46;;;;;;;40.07;20.97;;;9.20;98.10;;;;;;816118;174;27055;-91
2023/11/21 06:38:13;;;;;;;37.43;21.67;;;9.10;98.00;;;;;;816898;174;26410;-89
2023/11/21 06:40:40;;;;;;;36.53;20.43;;;9.10;97.90;;;;;;811607;174;26964;-89
2023/11/21 06:43:07;;;;;;;43.73;23.97;;;9.00;97.60;;;;;;817603;174;26972;-88
2023/11/21 06:45:34;;;;;;;46.03;23.53;;;9.10;97.80;;;;;;808764;174;26439;-90
2023/11/21 06:47:59;;;;;;;50.20;25.27;;;9.00;97.80;;;;;;808422;174;26437;-90
2023/11/21 06:50:26;;;;;;;61.83;27.27;;;9.10;98.00;;;;;;821684;173;26970;-90
2023/11/21 06:52:53;;;;;;;48.63;23.60;;;9.10;98.10;;;;;;805714;174;26989;-88
2023/11/21 06:55:19;;;;;;;45.60;25.00;;;9.10;98.20;;;;;;807693;173;26430;-90
2023/11/21 06:57:46;;;;;;;41.00;21.93;;;9.10;98.10;;;;;;805825;174;26396;-90
2023/11/21 07:00:13;;;;;;;44.30;23.53;;;9.00;98.00;;;;;;818264;174;26415;-89
2023/11/21 07:02:39;;;;;;;43.47;23.90;;;9.00;97.90;;;;;;808665;177;26461;-89
2023/11/21 07:05:06;;;;;;;42.83;23.83;;;9.00;98.10;;;;;;812001;174;26410;-89
2023/11/21 07:07:35;;;;;;;42.60;24.50;;;9.00;97.90;;;;;;810632;174;26411;-89
2023/11/21 07:10:02;;;;;;;45.27;23.23;;;9.00;97.90;;;;;;813121;174;26948;-89
2023/11/21 07:12:26;;;;;;;43.57;24.73;;;9.00;97.80;;;;;;809377;173;26473;-89
2023/11/21 07:14:53;;;;;;;50.57;24.60;;;8.90;97.80;;;;;;815337;174;26982;-89
2023/11/21 07:17:19;;;;;;;50.10;25.50;;;9.00;97.90;;;;;;814886;174;26412;-90
2023/11/21 07:19:46;;;;;;;45.13;24.83;;;9.00;97.60;;;;;;819213;174;26410;-90
2023/11/21 07:22:13;;;;;;;52.13;26.07;;;9.10;97.70;;;;;;810554;173;26406;-89
2023/11/21 07:24:39;;;;;;;51.83;27.23;;;9.10;97.80;;;;;;812928;174;26812;-89
2023/11/21 07:27:06;;;;;;;62.47;28.93;;;9.30;98.00;;;;;;808746;174;26433;-89
2023/11/21 07:29:33;;;;;;;52.23;27.83;;;9.40;98.00;;;;;;819907;172;26417;-89
2023/11/21 07:31:59;;;;;;;44.47;25.80;;;9.50;98.00;;;;;;810680;174;26428;-90
2023/11/21 07:34:41;;;;;;;50.33;26.30;;;9.40;97.30;;;;;;786550;174;26545;-83
2023/11/21 07:37:15;;;;;;;44.23;24.07;;;9.50;97.50;;;;;;776072;182;26487;-85
2023/11/21 07:39:49;;;;;;;49.13;25.77;;;9.60;97.60;;;;;;782287;180;27019;-88
2023/11/21 07:42:29;;;;;;;53.37;28.40;;;9.70;97.40;;;;;;769467;184;26490;-85
2023/11/21 07:44:59;;;;;;;53.83;26.73;;;9.70;97.40;;;;;;767400;184;26574;-85
2023/11/21 07:50:30;;;;;;;43.70;23.97;;;9.70;96.60;;;;;;774898;183;26531;-85
2023/11/21 07:53:06;;;;;;;42.50;24.23;;;9.70;96.90;;;;;;775055;183;26544;-86
2023/11/21 07:55:39;;;;;;;46.40;24.93;;;9.70;97.00;;;;;;766023;186;26464;-86
2023/11/21 08:14:43;;;;;;;51.37;26.27;;;10.00;96.80;;;;;;764504;176;26498;-90
2023/11/21 08:17:10;;;;;;;43.40;24.43;;;9.90;96.80;;;;;;762023;187;26498;-90
2023/11/21 08:19:36;;;;;;;50.37;26.70;;;10.00;96.50;;;;;;764126;182;28087;-89
2023/11/21 08:22:17;;;;;;;;;;;;;;;;;;;;;
2023/11/21 08:24:42;;;;;;;44.30;23.00;;;10.10;96.50;;;;;;777405;180;26575;-88
2023/11/21 08:27:23;;;;;;;47.77;24.73;;;10.20;96.20;;;;;;769211;184;26486;-88
2023/11/21 08:29:50;;;;;;;40.80;24.57;;;10.20;96.10;;;;;;771964;186;26475;-88
2023/11/21 08:32:16;;;;;;;44.83;23.77;;;10.20;96.10;;;;;;782733;179;26463;-88
2023/11/21 08:34:44;;;;;;;43.57;23.67;;;10.10;96.00;;;;;;761507;184;26593;-87
2023/11/21 08:37:10;;;;;;;45.10;24.73;;;10.00;95.60;;;;;;766379;185;27137;-88
2023/11/21 08:39:50;;;;;;;56.53;25.67;;;10.10;96.00;;;;;;794488;177;26432;-84
2023/11/21 08:42:22;;;;;;;50.37;25.80;;;10.10;95.70;;;;;;793767;177;26461;-86
2023/11/21 08:44:57;;;;;;;47.47;24.83;;;10.10;95.80;;;;;;796966;176;26453;-84
2023/11/21 08:47:36;;;;;;;46.53;24.67;;;10.20;96.10;;;;;;791201;180;26992;-86
2023/11/21 08:50:16;;;;;;;48.40;25.33;;;10.20;96.00;;;;;;791756;175;26492;-88
2023/11/21 08:52:52;;;;;;;47.60;24.90;;;10.20;96.00;;;;;;799899;176;26426;-84
2023/11/21 08:55:37;;;;;;;52.03;25.83;;;10.20;96.10;;;;;;802391;177;26478;-87
2023/11/21 08:58:06;;;;;;;50.27;24.93;;;10.20;95.70;;;;;;806255;175;26449;-85
2023/11/21 09:00:56;;;;;;;50.33;25.63;;;10.30;96.00;;;;;;800208;175;26514;-85
2023/11/21 09:03:28;;;;;;;47.20;25.97;;;10.20;95.60;;;;;;796165;180;26471;-84
2023/11/21 09:06:09;;;;;;;46.57;26.07;;;10.20;95.20;;;;;;796101;180;26433;-83
2023/11/21 09:11:33;;;;;;;46.30;24.50;;;10.30;95.30;;;;;;792088;180;26529;-83
2023/11/21 09:14:03;;;;;;;44.30;24.57;;;10.20;95.50;;;;;;792504;180;26437;-84
2023/11/21 09:16:40;;;;;;;47.07;24.70;;;10.20;95.00;;;;;;792625;179;26446;-87
2023/11/21 09:19:14;;;;;;;54.00;26.90;;;10.20;95.30;;;;;;790994;178;26991;-86
2023/11/21 09:21:49;;;;;;;52.40;26.47;;;10.20;95.50;;;;;;794892;180;26470;-84
2023/11/21 09:24:19;;;;;;;48.33;26.17;;;10.30;95.80;;;;;;787393;182;26424;-85
2023/11/21 09:26:54;;;;;;;46.70;24.90;;;10.40;96.10;;;;;;787161;179;26433;-84
2023/11/21 09:29:38;;;;;;;43.80;24.40;;;10.50;95.90;;;;;;797431;178;26447;-84
2023/11/21 09:32:22;;;;;;;50.60;26.63;;;10.60;95.30;;;;;;801137;178;26430;-85
2023/11/21 09:35:07;;;;;;;50.27;25.63;;;10.60;95.20;;;;;;805669;177;26452;-85
2023/11/21 09:37:47;;;;;;;52.43;27.30;;;10.60;95.40;;;;;;805660;175;26430;-85
2023/11/21 09:40:19;;;;;;;51.17;29.27;;;10.60;94.90;;;;;;804886;178;26582;-84
2023/11/21 09:43:02;;;;;;;50.60;26.37;;;10.60;94.20;;;;;;800021;178;26459;-85
2023/11/21 09:45:34;;;;;;;52.47;28.87;;;10.60;94.50;;;;;;803179;176;26461;-85
2023/11/21 09:48:03;;;;;;;49.73;27.17;;;10.60;95.10;;;;;;802916;175;26427;-85
2023/11/21 09:50:33;;;;;;;52.80;27.50;;;10.50;94.90;;;;;;800953;175;26992;-84
2023/11/21 09:53:24;;;;;;;46.97;26.90;;;10.50;94.80;;;;;;802490;174;26450;-84
2023/11/21 09:55:51;;;;;;;51.07;26.80;;;10.60;95.20;;;;;;807513;177;26423;-84
2023/11/21 09:58:24;;;;;;;50.87;26.87;;;10.50;94.50;;;;;;807181;174;26425;-85
2023/11/21 10:00:52;;;;;;;40.70;23.50;;;10.60;95.00;;;;;;805726;177;26488;-87
2023/11/21 10:03:32;;;;;;;49.60;24.73;;;10.70;95.10;;;;;;801561;174;26422;-85
2023/11/21 10:06:06;;;;;;;48.57;24.97;;;10.70;94.90;;;;;;806635;175;26980;-85
2023/11/21 10:08:43;;;;;;;44.90;24.97;;;10.70;94.80;;;;;;806501;178;27003;-85
2023/11/21 10:11:15;;;;;;;46.13;23.03;;;10.60;94.10;;;;;;805686;175;26449;-85
2023/11/21 10:13:59;;;;;;;45.70;25.23;;;10.60;93.90;;;;;;785032;181;26425;-84
2023/11/21 10:16:37;;;;;;;42.13;23.33;;;10.50;93.90;;;;;;790635;178;26962;-83
2023/11/21 10:19:24;;;;;;;47.00;23.90;;;10.50;94.30;;;;;;787575;181;26461;-85
2023/11/21 10:22:02;;;;;;;45.40;23.77;;;10.50;94.70;;;;;;795079;179;26457;-85
2023/11/21 10:27:19;;;;;;;45.30;25.77;;;10.80;93.90;;;;;;806005;178;26411;-85
2023/11/21 10:32:43;;;;;;;40.27;22.20;;;10.80;94.40;;;;;;800678;175;26418;-85
2023/11/21 10:35:19;;;;;;;40.17;20.17;;;10.80;93.90;;;;;;797552;176;26456;-85
2023/11/21 10:37:57;;;;;;;41.13;23.07;;;10.90;93.60;;;;;;798905;177;26429;-84
2023/11/21 10:43:15;;;;;;;41.63;23.43;;;11.00;93.60;;;;;;804606;178;26411;-84
2023/11/21 10:45:54;;;;;;;40.40;22.63;;;11.00;93.50;;;;;;803034;174;26459;-87
2023/11/21 10:51:21;;;;;;;53.17;26.23;;;10.70;93.60;;;;;;803197;175;26446;-84
2023/11/21 10:54:07;;;;;;;44.03;24.57;;;10.70;94.00;;;;;;801984;174;26421;-84
2023/11/21 10:56:51;;;;;;;;;;;;;;;;;;;;;
2023/11/21 10:59:31;;;;;;;47.87;25.63;;;10.90;93.20;;;;;;805487;175;26989;-84
2023/11/21 11:02:02;;;;;;;55.17;26.63;;;10.90;93.50;;;;;;805441;178;26505;-84
2023/11/21 11:04:33;;;;;;;56.77;27.07;;;10.80;93.80;;;;;;801491;178;26471;-82
2023/11/21 11:07:09;;;;;;;52.53;26.30;;;10.80;93.80;;;;;;804429;174;26561;-85
2023/11/21 11:09:45;;;;;;;59.67;26.97;;;10.80;93.60;;;;;;803298;179;26477;-84
2023/11/21 11:12:26;;;;;;;53.97;26.67;;;10.90;94.60;;;;;;804247;178;26430;-84
2023/11/21 11:15:03;;;;;;;53.37;26.50;;;10.90;93.90;;;;;;800846;176;26566;-83
2023/11/21 11:20:35;;;;;;;55.10;26.97;;;10.90;93.90;;;;;;796572;177;26506;-84
2023/11/21 11:23:31;;;;;;;53.83;28.23;;;10.90;93.90;;;;;;796246;176;27473;-84
2023/11/21 11:26:23;;;;;;;50.63;25.37;;;10.90;94.00;;;;;;776647;182;26447;-83
2023/11/21 11:29:12;;;;;;;56.00;27.70;;;11.00;94.30;;;;;;786994;180;26435;-84
2023/11/21 11:31:51;;;;;;;58.87;27.50;;;10.90;93.70;;;;;;796064;180;26439;-83
2023/11/21 11:34:29;;;;;;;52.07;25.77;;;11.00;93.80;;;;;;800250;175;26519;-84
2023/11/21 11:37:08;;;;;;;53.47;24.37;;;10.90;93.50;;;;;;799767;178;26435;-84
2023/11/21 11:39:45;;;;;;;45.80;24.03;;;11.00;94.30;;;;;;796019;180;26976;-84
2023/11/21 11:42:16;;;;;;;49.87;24.87;;;11.00;94.10;;;;;;795469;177;26434;-84
2023/11/21 11:44:55;;;;;;;59.07;27.47;;;11.00;93.60;;;;;;797232;177;26447;-84
2023/11/21 11:47:39;;;;;;;47.00;25.30;;;11.10;95.00;;;;;;796976;178;26430;-84
2023/11/21 11:52:54;;;;;;;48.27;25.53;;;11.20;93.30;;;;;;797365;178;26466;-84
2023/11/21 11:55:32;;;;;;;48.77;25.90;;;11.20;93.80;;;;;;799710;177;26438;-86
2023/11/21 11:58:00;;;;;;;47.43;25.07;;;11.30;94.20;;;;;;795698;180;26587;-85
2023/11/21 12:00:48;;;;;;;42.40;21.87;;;11.50;93.90;;;;;;795699;177;26477;-87
2023/11/21 12:03:17;;;;;;;39.40;22.23;;;11.50;93.30;;;;;;795852;178;26434;-86
2023/11/21 12:05:53;;;;;;;46.33;23.43;;;11.50;93.10;;;;;;800914;177;26473;-86
2023/11/21 12:08:22;;;;;;;37.83;20.87;;;11.60;93.10;;;;;;805634;175;26451;-84
2023/11/21 12:10:54;;;;;;;47.30;23.73;;;11.50;92.80;;;;;;772953;182;26496;-87
2023/11/21 12:16:39;;;;;;;47.93;23.83;;;11.50;93.30;;;;;;796383;178;26433;-82
2023/11/21 12:19:07;;;;;;;51.70;23.50;;;11.30;93.10;;;;;;807818;174;27671;-84
2023/11/21 12:21:55;;;;;;;50.07;24.67;;;11.20;93.30;;;;;;807232;177;26462;-85
2023/11/21 12:24:38;;;;;;;56.20;25.50;;;11.20;93.30;;;;;;805437;175;27199;-87
2023/11/21 12:30:28;;;;;;;43.60;21.97;;;11.20;93.60;;;;;;781190;179;26474;-85
2023/11/21 12:32:47;;;;;;;55.10;25.23;;;11.00;93.20;;;;;;778550;179;26473;-84
2023/11/21 12:35:36;;;;;;;51.53;26.03;;;11.00;94.30;;;;;;788163;180;26515;-83
2023/11/21 12:38:08;;;;;;;55.37;26.57;;;11.10;93.80;;;;;;781613;180;26517;-84
2023/11/21 12:40:38;;;;;;;56.00;26.43;;;11.20;94.10;;;;;;789632;181;26766;-87
2023/11/21 12:43:16;;;;;;;56.27;26.07;;;11.20;93.60;;;;;;790362;179;26427;-84
2023/11/21 12:54:09;;;;;;;49.17;24.63;;;11.50;93.30;;;;;;803469;175;26450;-84
2023/11/21 12:56:43;;;;;;;47.20;24.57;;;11.40;92.90;;;;;;800958;178;26449;-84
2023/11/21 12:59:14;;;;;;;47.73;25.27;;;11.30;92.90;;;;;;798793;175;26419;-84
2023/11/21 13:01:56;;;;;;;;;;;;;;;;;;;;;
2023/11/21 13:04:30;;;;;;;46.80;24.47;;;11.20;92.60;;;;;;795919;180;26992;-84
2023/11/21 13:07:20;;;;;;;48.30;22.63;;;11.30;92.90;;;;;;799662;177;26514;-86
2023/11/21 13:10:08;;;;;;;;;;;;;;;;;;;;;
2023/11/21 13:13:07;;;;;;;;;;;;;;;;;;;;;
2023/11/21 13:18:27;;;;;;;44.13;22.23;;;11.30;91.90;;;;;;800089;178;26426;-84
2023/11/21 13:23:46;;;;;;;43.63;25.07;;;11.40;91.90;;;;;;737521;177;26486;-83
2023/11/21 13:29:21;;;;;;;45.33;24.23;;;11.60;92.60;;;;;;803094;176;26432;-84
2023/11/21 13:31:53;;;;;;;38.67;22.50;;;11.80;91.70;;;;;;800738;176;26463;-86
2023/11/21 13:34:22;;;;;;;39.93;21.93;;;11.80;91.20;;;;;;806670;177;26804;-90
2023/11/21 13:39:35;;;;;;;44.40;21.37;;;11.50;90.60;;;;;;728353;178;26530;-88
2023/11/21 13:47:54;;;;;;;45.87;25.17;;;11.40;91.60;;;;;;784345;182;27043;-88
2023/11/21 13:50:24;;;;;;;52.63;25.30;;;11.40;91.70;;;;;;771338;184;26506;-89
2023/11/21 13:58:23;;;;;;;53.10;26.50;;;11.40;92.10;;;;;;767670;177;27099;-87
2023/11/21 14:00:46;;;;;;;47.33;24.90;;;11.40;92.10;;;;;;763085;185;26484;-86
2023/11/21 14:03:21;;;;;;;55.97;26.60;;;11.40;92.10;;;;;;762436;187;26497;-87
2023/11/21 14:05:47;;;;;;;57.50;27.67;;;11.40;92.00;;;;;;762329;187;26475;-87
2023/11/21 14:08:16;;;;;;;52.63;27.53;;;11.40;91.50;;;;;;759379;184;26517;-87
2023/11/21 14:10:50;;;;;;;49.97;25.33;;;11.40;92.10;;;;;;766122;177;27019;-83
2023/11/21 14:13:26;;;;;;;;;;;;;;;;;;;;;
2023/11/21 14:16:06;;;;;;;48.87;25.63;;;11.40;91.50;;;;;;767364;185;26484;-83
2023/11/21 14:21:44;;;;;;;54.77;27.03;;;11.30;91.70;;;;;;749522;187;26513;-84